Terminal Aerodrome Forecast
Issued by NWS

Home | Current Version | Previous Version | Text Only | Print | Product List | Glossary On
Versions: 1 2 3 4 5 6 7 8 9 10 11 12 13
000
FTUS43 KDTX 232300
TAFMBS
TAF
KMBS 232320Z 2400/2424 03010KT P6SM SCT045
     FM240200 34006KT P6SM SKC
     FM241400 33007KT P6SM SCT045
     FM242100 30007KT P6SM FEW060=

USA.gov is the U.S. government's official web portal to all federal, state and local government web resources and services.